sensor_id;sensor_type;location;lat;lon;timestamp;pressure;altitude;pressure_sealevel;temperature;humidity
29169;BME280;16219;42.864;23.360;2022-08-30T00:02:22;95972.25;;;19.25;100.00
29169;BME280;16219;42.864;23.360;2022-08-30T00:04:49;95981.00;;;19.21;100.00
29169;BME280;16219;42.864;23.360;2022-08-30T00:07:18;95974.13;;;19.24;100.00
29169;BME280;16219;42.864;23.360;2022-08-30T00:09:45;95977.63;;;19.28;100.00
29169;BME280;16219;42.864;23.360;2022-08-30T00:12:13;95979.97;;;19.30;100.00
29169;BME280;16219;42.864;23.360;2022-08-30T00:14:40;95978.72;;;19.23;100.00
29169;BME280;16219;42.864;23.360;2022-08-30T00:17:07;95988.31;;;19.25;100.00
29169;BME280;16219;42.864;23.360;2022-08-30T00:19:36;95989.41;;;19.23;100.00
29169;BME280;16219;42.864;23.360;2022-08-30T00:22:07;95983.31;;;19.23;100.00
29169;BME280;16219;42.864;23.360;2022-08-30T00:24:34;95981.00;;;19.21;100.00
29169;BME280;16219;42.864;23.360;2022-08-30T00:27:03;95979.41;;;19.17;100.00
29169;BME280;16219;42.864;23.360;2022-08-30T00:29:30;95973.28;;;19.16;100.00
29169;BME280;16219;42.864;23.360;2022-08-30T00:31:57;95971.34;;;19.13;100.00
29169;BME280;16219;42.864;23.360;2022-08-30T00:34:25;95974.78;;;19.14;100.00
29169;BME280;16219;42.864;23.360;2022-08-30T00:36:54;95976.22;;;19.08;100.00
29169;BME280;16219;42.864;23.360;2022-08-30T00:39:22;95971.22;;;19.06;100.00
29169;BME280;16219;42.864;23.360;2022-08-30T00:41:49;95946.13;;;18.88;100.00
29169;BME280;16219;42.864;23.360;2022-08-30T00:44:17;95948.59;;;19.00;100.00
29169;BME280;16219;42.864;23.360;2022-08-30T00:46:45;95964.78;;;19.11;100.00
29169;BME280;16219;42.864;23.360;2022-08-30T00:49:13;95978.59;;;19.13;100.00
29169;BME280;16219;42.864;23.360;2022-08-30T00:51:40;95962.06;;;19.07;100.00
29169;BME280;16219;42.864;23.360;2022-08-30T00:54:10;95970.97;;;19.15;100.00
29169;BME280;16219;42.864;23.360;2022-08-30T00:56:37;95975.47;;;19.11;100.00
29169;BME280;16219;42.864;23.360;2022-08-30T00:59:07;95978.47;;;19.06;100.00
29169;BME280;16219;42.864;23.360;2022-08-30T01:01:34;95974.22;;;19.01;100.00
29169;BME280;16219;42.864;23.360;2022-08-30T01:04:04;95979.97;;;19.03;100.00
29169;BME280;16219;42.864;23.360;2022-08-30T01:06:36;95986.03;;;19.00;100.00
29169;BME280;16219;42.864;23.360;2022-08-30T01:09:04;95960.53;;;18.80;100.00
29169;BME280;16219;42.864;23.360;2022-08-30T01:11:35;95978.97;;;18.88;100.00
29169;BME280;16219;42.864;23.360;2022-08-30T01:14:04;95993.56;;;18.94;100.00
29169;BME280;16219;42.864;23.360;2022-08-30T01:16:33;95994.72;;;18.93;100.00
29169;BME280;16219;42.864;23.360;2022-08-30T01:19:01;95992.81;;;18.94;100.00
29169;BME280;16219;42.864;23.360;2022-08-30T01:21:33;95974.53;;;18.73;100.00
29169;BME280;16219;42.864;23.360;2022-08-30T01:24:04;95982.97;;;18.75;100.00
29169;BME280;16219;42.864;23.360;2022-08-30T01:26:34;95981.53;;;18.81;100.00
29169;BME280;16219;42.864;23.360;2022-08-30T01:29:05;95985.88;;;18.89;100.00
29169;BME280;16219;42.864;23.360;2022-08-30T01:31:34;95975.44;;;18.81;100.00
29169;BME280;16219;42.864;23.360;2022-08-30T01:34:02;95955.06;;;18.72;100.00
29169;BME280;16219;42.864;23.360;2022-08-30T01:36:30;95961.72;;;18.82;100.00
29169;BME280;16219;42.864;23.360;2022-08-30T01:38:58;95963.19;;;18.80;100.00
29169;BME280;16219;42.864;23.360;2022-08-30T01:41:30;95971.38;;;18.90;100.00
29169;BME280;16219;42.864;23.360;2022-08-30T01:44:00;95953.16;;;18.73;100.00
29169;BME280;16219;42.864;23.360;2022-08-30T01:46:30;95945.09;;;18.69;100.00
29169;BME280;16219;42.864;23.360;2022-08-30T01:49:04;95937.50;;;18.71;100.00
29169;BME280;16219;42.864;23.360;2022-08-30T01:51:31;95960.63;;;18.87;100.00
29169;BME280;16219;42.864;23.360;2022-08-30T01:53:59;95947.47;;;18.75;100.00
29169;BME280;16219;42.864;23.360;2022-08-30T01:56:28;95956.97;;;18.72;100.00
29169;BME280;16219;42.864;23.360;2022-08-30T01:58:56;95948.47;;;18.66;100.00
29169;BME280;16219;42.864;23.360;2022-08-30T02:01:26;95962.31;;;18.72;100.00
29169;BME280;16219;42.864;23.360;2022-08-30T02:03:55;95955.94;;;18.80;100.00
29169;BME280;16219;42.864;23.360;2022-08-30T02:06:23;95953.69;;;18.82;100.00
29169;BME280;16219;42.864;23.360;2022-08-30T02:08:50;95955.94;;;18.80;100.00
29169;BME280;16219;42.864;23.360;2022-08-30T02:11:18;95951.03;;;18.82;100.00
29169;BME280;16219;42.864;23.360;2022-08-30T02:13:46;95953.34;;;18.84;100.00
29169;BME280;16219;42.864;23.360;2022-08-30T02:16:16;95954.09;;;18.84;100.00
29169;BME280;16219;42.864;23.360;2022-08-30T02:18:44;95948.34;;;18.82;100.00
29169;BME280;16219;42.864;23.360;2022-08-30T02:21:13;95952.13;;;18.81;100.00
29169;BME280;16219;42.864;23.360;2022-08-30T02:23:40;95951.31;;;18.77;100.00
29169;BME280;16219;42.864;23.360;2022-08-30T02:26:09;95953.59;;;18.75;100.00
29169;BME280;16219;42.864;23.360;2022-08-30T02:28:37;95955.88;;;18.77;100.00
29169;BME280;16219;42.864;23.360;2022-08-30T02:31:05;95958.22;;;18.78;100.00
29169;BME280;16219;42.864;23.360;2022-08-30T02:33:33;95945.78;;;18.66;100.00
29169;BME280;16219;42.864;23.360;2022-08-30T02:36:00;95955.78;;;18.69;100.00
29169;BME280;16219;42.864;23.360;2022-08-30T02:38:28;95962.53;;;18.63;100.00
29169;BME280;16219;42.864;23.360;2022-08-30T02:40:55;95957.59;;;18.65;100.00
29169;BME280;16219;42.864;23.360;2022-08-30T02:43:23;95947.88;;;18.54;100.00
29169;BME280;16219;42.864;23.360;2022-08-30T02:45:51;95961.75;;;18.63;100.00
29169;BME280;16219;42.864;23.360;2022-08-30T02:48:21;95960.16;;;18.58;100.00
29169;BME280;16219;42.864;23.360;2022-08-30T02:50:50;95949.34;;;18.51;100.00
29169;BME280;16219;42.864;23.360;2022-08-30T02:53:19;95966.88;;;18.48;100.00
29169;BME280;16219;42.864;23.360;2022-08-30T02:55:47;95960.47;;;18.53;100.00
29169;BME280;16219;42.864;23.360;2022-08-30T02:58:15;95970.91;;;18.62;100.00
29169;BME280;16219;42.864;23.360;2022-08-30T03:00:43;95958.56;;;18.54;100.00
29169;BME280;16219;42.864;23.360;2022-08-30T03:03:10;95950.84;;;18.48;100.00
29169;BME280;16219;42.864;23.360;2022-08-30T03:05:39;95965.81;;;18.53;100.00
29169;BME280;16219;42.864;23.360;2022-08-30T03:08:07;95966.94;;;18.52;100.00
29169;BME280;16219;42.864;23.360;2022-08-30T03:10:35;95961.16;;;18.50;100.00
29169;BME280;16219;42.864;23.360;2022-08-30T03:13:03;95966.22;;;18.55;100.00
29169;BME280;16219;42.864;23.360;2022-08-30T03:15:30;95952.69;;;18.44;100.00
29169;BME280;16219;42.864;23.360;2022-08-30T03:17:58;95953.00;;;18.39;100.00
29169;BME280;16219;42.864;23.360;2022-08-30T03:20:25;95955.66;;;18.39;100.00
29169;BME280;16219;42.864;23.360;2022-08-30T03:22:54;95951.13;;;18.43;100.00
29169;BME280;16219;42.864;23.360;2022-08-30T03:25:23;95953.09;;;18.46;100.00
29169;BME280;16219;42.864;23.360;2022-08-30T03:27:50;95962.13;;;18.38;100.00
29169;BME280;16219;42.864;23.360;2022-08-30T03:30:19;95946.69;;;18.28;100.00
29169;BME280;16219;42.864;23.360;2022-08-30T03:32:46;95937.25;;;18.11;100.00
29169;BME280;16219;42.864;23.360;2022-08-30T03:35:14;95944.72;;;18.25;100.00
29169;BME280;16219;42.864;23.360;2022-08-30T03:37:41;95949.00;;;18.30;100.00
29169;BME280;16219;42.864;23.360;2022-08-30T03:40:13;95947.81;;;18.27;100.00
29169;BME280;16219;42.864;23.360;2022-08-30T03:42:41;95947.41;;;18.25;100.00
29169;BME280;16219;42.864;23.360;2022-08-30T03:45:10;95942.47;;;18.27;100.00
29169;BME280;16219;42.864;23.360;2022-08-30T03:47:38;95934.81;;;18.03;100.00
29169;BME280;16219;42.864;23.360;2022-08-30T03:50:06;95945.47;;;18.03;100.00
29169;BME280;16219;42.864;23.360;2022-08-30T03:52:33;95940.38;;;18.17;100.00
29169;BME280;16219;42.864;23.360;2022-08-30T03:55:00;95924.13;;;18.03;100.00
29169;BME280;16219;42.864;23.360;2022-08-30T03:57:29;95939.69;;;18.20;100.00
29169;BME280;16219;42.864;23.360;2022-08-30T03:59:58;95947.41;;;18.25;100.00
29169;BME280;16219;42.864;23.360;2022-08-30T04:02:26;95951.31;;;18.31;100.00
29169;BME280;16219;42.864;23.360;2022-08-30T04:04:53;95952.66;;;18.21;100.00
29169;BME280;16219;42.864;23.360;2022-08-30T04:07:21;95957.44;;;18.32;100.00
29169;BME280;16219;42.864;23.360;2022-08-30T04:09:48;95955.53;;;18.32;100.00
29169;BME280;16219;42.864;23.360;2022-08-30T04:12:15;95968.22;;;18.39;100.00
29169;BME280;16219;42.864;23.360;2022-08-30T04:14:44;95981.88;;;18.34;100.00
29169;BME280;16219;42.864;23.360;2022-08-30T04:17:11;95968.81;;;18.29;100.00
29169;BME280;16219;42.864;23.360;2022-08-30T04:19:38;95966.16;;;18.29;100.00
29169;BME280;16219;42.864;23.360;2022-08-30T04:22:06;95966.63;;;18.34;100.00
29169;BME280;16219;42.864;23.360;2022-08-30T04:24:35;95957.50;;;18.35;100.00
29169;BME280;16219;42.864;23.360;2022-08-30T04:27:03;95962.47;;;18.37;100.00
29169;BME280;16219;42.864;23.360;2022-08-30T04:29:30;95968.22;;;18.39;100.00
29169;BME280;16219;42.864;23.360;2022-08-30T04:32:02;95963.84;;;18.27;100.00
29169;BME280;16219;42.864;23.360;2022-08-30T04:34:29;95960.88;;;18.32;100.00
29169;BME280;16219;42.864;23.360;2022-08-30T04:36:57;95971.69;;;18.39;100.00
29169;BME280;16219;42.864;23.360;2022-08-30T04:39:24;95968.94;;;18.36;100.00
29169;BME280;16219;42.864;23.360;2022-08-30T04:41:52;95977.19;;;18.27;100.00
29169;BME280;16219;42.864;23.360;2022-08-30T04:44:20;95974.22;;;18.32;100.00
29169;BME280;16219;42.864;23.360;2022-08-30T04:46:47;95978.28;;;18.45;100.00
29169;BME280;16219;42.864;23.360;2022-08-30T04:49:16;95971.50;;;18.52;100.00
29169;BME280;16219;42.864;23.360;2022-08-30T04:51:44;95989.25;;;18.63;100.00
29169;BME280;16219;42.864;23.360;2022-08-30T04:54:11;95980.94;;;18.68;100.00
29169;BME280;16219;42.864;23.360;2022-08-30T04:56:39;95984.38;;;18.69;100.00
29169;BME280;16219;42.864;23.360;2022-08-30T04:59:08;95984.81;;;18.71;100.00
29169;BME280;16219;42.864;23.360;2022-08-30T05:01:36;96000.38;;;18.88;100.00
29169;BME280;16219;42.864;23.360;2022-08-30T05:04:03;95989.31;;;18.90;100.00
29169;BME280;16219;42.864;23.360;2022-08-30T05:06:33;95998.00;;;18.83;100.00
29169;BME280;16219;42.864;23.360;2022-08-30T05:09:00;96000.44;;;18.92;100.00
29169;BME280;16219;42.864;23.360;2022-08-30T05:11:28;96000.50;;;18.95;100.00
29169;BME280;16219;42.864;23.360;2022-08-30T05:13:56;96000.81;;;18.94;100.00
29169;BME280;16219;42.864;23.360;2022-08-30T05:16:23;96004.81;;;19.04;100.00
29169;BME280;16219;42.864;23.360;2022-08-30T05:18:51;96006.88;;;19.14;100.00
29169;BME280;16219;42.864;23.360;2022-08-30T05:21:22;96015.41;;;19.23;100.00
29169;BME280;16219;42.864;23.360;2022-08-30T05:23:54;96020.41;;;19.25;100.00
29169;BME280;16219;42.864;23.360;2022-08-30T05:26:23;96019.63;;;19.24;100.00
29169;BME280;16219;42.864;23.360;2022-08-30T05:28:50;96020.34;;;19.21;100.00
29169;BME280;16219;42.864;23.360;2022-08-30T05:31:20;96024.50;;;19.18;100.00
29169;BME280;16219;42.864;23.360;2022-08-30T05:33:50;96023.03;;;19.21;100.00
29169;BME280;16219;42.864;23.360;2022-08-30T05:36:20;96025.84;;;19.32;100.00
29169;BME280;16219;42.864;23.360;2022-08-30T05:38:48;96023.31;;;19.42;100.00
29169;BME280;16219;42.864;23.360;2022-08-30T05:41:20;96019.31;;;19.56;100.00
29169;BME280;16219;42.864;23.360;2022-08-30T05:43:51;96012.41;;;19.55;100.00
29169;BME280;16219;42.864;23.360;2022-08-30T05:46:19;96023.75;;;19.71;100.00
29169;BME280;16219;42.864;23.360;2022-08-30T05:48:48;96025.28;;;19.72;100.00
29169;BME280;16219;42.864;23.360;2022-08-30T05:51:18;96020.38;;;19.78;100.00
29169;BME280;16219;42.864;23.360;2022-08-30T05:53:48;96025.44;;;19.86;100.00
29169;BME280;16219;42.864;23.360;2022-08-30T05:56:20;96025.44;;;19.86;100.00
29169;BME280;16219;42.864;23.360;2022-08-30T05:58:50;96018.56;;;19.85;100.00
29169;BME280;16219;42.864;23.360;2022-08-30T06:01:18;96013.19;;;19.85;100.00
29169;BME280;16219;42.864;23.360;2022-08-30T06:03:46;96027.78;;;19.91;100.00
29169;BME280;16219;42.864;23.360;2022-08-30T06:06:14;95991.28;;;19.76;100.00
29169;BME280;16219;42.864;23.360;2022-08-30T06:08:41;96017.94;;;19.99;100.00
29169;BME280;16219;42.864;23.360;2022-08-30T06:11:15;96005.94;;;19.86;100.00
29169;BME280;16219;42.864;23.360;2022-08-30T06:13:46;96024.88;;;20.04;100.00
29169;BME280;16219;42.864;23.360;2022-08-30T06:16:14;96023.81;;;20.12;100.00
29169;BME280;16219;42.864;23.360;2022-08-30T06:18:42;96027.41;;;20.23;100.00
29169;BME280;16219;42.864;23.360;2022-08-30T06:21:15;96015.16;;;20.22;100.00
29169;BME280;16219;42.864;23.360;2022-08-30T06:23:42;96025.25;;;20.36;100.00
29169;BME280;16219;42.864;23.360;2022-08-30T06:26:11;96027.69;;;20.48;100.00
29169;BME280;16219;42.864;23.360;2022-08-30T06:28:38;96028.94;;;20.58;100.00
29169;BME280;16219;42.864;23.360;2022-08-30T06:31:08;96037.75;;;20.58;100.00
29169;BME280;16219;42.864;23.360;2022-08-30T06:33:36;96037.81;;;20.65;100.00
29169;BME280;16219;42.864;23.360;2022-08-30T06:36:06;96040.84;;;20.64;100.00
29169;BME280;16219;42.864;23.360;2022-08-30T06:38:35;96041.78;;;20.82;100.00
29169;BME280;16219;42.864;23.360;2022-08-30T06:41:04;96049.56;;;20.94;100.00
29169;BME280;16219;42.864;23.360;2022-08-30T06:43:32;96033.03;;;20.89;100.00
29169;BME280;16219;42.864;23.360;2022-08-30T06:46:01;96045.91;;;21.17;100.00
29169;BME280;16219;42.864;23.360;2022-08-30T06:48:29;96046.69;;;21.21;100.00
29169;BME280;16219;42.864;23.360;2022-08-30T06:51:00;96058.16;;;21.18;100.00
29169;BME280;16219;42.864;23.360;2022-08-30T06:53:28;96054.56;;;21.00;100.00
29169;BME280;16219;42.864;23.360;2022-08-30T06:55:57;96057.28;;;21.03;100.00
29169;BME280;16219;42.864;23.360;2022-08-30T06:58:25;96056.19;;;21.08;100.00
29169;BME280;16219;42.864;23.360;2022-08-30T07:00:53;96059.69;;;21.15;100.00
29169;BME280;16219;42.864;23.360;2022-08-30T07:03:20;96057.31;;;21.07;100.00
29169;BME280;16219;42.864;23.360;2022-08-30T07:05:49;96063.47;;;21.11;100.00
29169;BME280;16219;42.864;23.360;2022-08-30T07:08:17;96061.91;;;21.03;100.00
29169;BME280;16219;42.864;23.360;2022-08-30T07:10:45;96065.25;;;20.92;100.00
29169;BME280;16219;42.864;23.360;2022-08-30T07:13:12;96054.94;;;20.94;100.00
29169;BME280;16219;42.864;23.360;2022-08-30T07:15:40;96069.22;;;21.09;100.00
29169;BME280;16219;42.864;23.360;2022-08-30T07:18:09;96070.75;;;21.10;100.00
29169;BME280;16219;42.864;23.360;2022-08-30T07:20:56;96068.81;;;21.07;100.00
29169;BME280;16219;42.864;23.360;2022-08-30T07:23:23;96076.38;;;20.94;100.00
29169;BME280;16219;42.864;23.360;2022-08-30T07:25:51;96069.44;;;20.90;100.00
29169;BME280;16219;42.864;23.360;2022-08-30T07:28:18;96074.00;;;20.89;100.00
29169;BME280;16219;42.864;23.360;2022-08-30T07:30:45;96080.53;;;20.88;100.00
29169;BME280;16219;42.864;23.360;2022-08-30T07:33:12;96079.38;;;20.89;100.00
29169;BME280;16219;42.864;23.360;2022-08-30T07:35:39;96070.88;;;20.80;100.00
29169;BME280;16219;42.864;23.360;2022-08-30T07:38:11;96062.47;;;20.82;100.00
29169;BME280;16219;42.864;23.360;2022-08-30T07:40:38;96067.13;;;20.88;100.00
29169;BME280;16219;42.864;23.360;2022-08-30T07:43:06;96063.22;;;20.79;100.00
29169;BME280;16219;42.864;23.360;2022-08-30T07:45:33;96062.47;;;20.82;100.00
29169;BME280;16219;42.864;23.360;2022-08-30T07:48:00;96066.63;;;20.76;100.00
29169;BME280;16219;42.864;23.360;2022-08-30T07:50:27;96057.00;;;20.71;100.00
29169;BME280;16219;42.864;23.360;2022-08-30T07:52:54;96062.31;;;20.67;100.00
29169;BME280;16219;42.864;23.360;2022-08-30T07:55:23;96030.66;;;20.39;100.00
29169;BME280;16219;42.864;23.360;2022-08-30T07:57:51;96057.66;;;20.57;100.00
29169;BME280;16219;42.864;23.360;2022-08-30T08:00:18;96050.72;;;20.53;100.00
29169;BME280;16219;42.864;23.360;2022-08-30T08:02:45;96044.59;;;20.56;100.00
29169;BME280;16219;42.864;23.360;2022-08-30T08:05:12;96048.09;;;20.60;100.00
29169;BME280;16219;42.864;23.360;2022-08-30T08:07:40;96055.47;;;20.70;100.00
29169;BME280;16219;42.864;23.360;2022-08-30T08:10:07;96055.50;;;20.77;100.00
29169;BME280;16219;42.864;23.360;2022-08-30T08:12:36;96049.84;;;20.82;100.00
29169;BME280;16219;42.864;23.360;2022-08-30T08:15:05;96051.75;;;20.85;100.00
29169;BME280;16219;42.864;23.360;2022-08-30T08:17:32;96051.34;;;20.80;100.00
29169;BME280;16219;42.864;23.360;2022-08-30T08:20:00;96056.63;;;20.72;100.00
29169;BME280;16219;42.864;23.360;2022-08-30T08:22:27;96040.84;;;20.64;100.00
29169;BME280;16219;42.864;23.360;2022-08-30T08:24:54;96057.47;;;20.80;100.00
29169;BME280;16219;42.864;23.360;2022-08-30T08:27:21;96054.94;;;20.94;100.00
29169;BME280;16219;42.864;23.360;2022-08-30T08:29:50;96054.91;;;20.91;100.00
29169;BME280;16219;42.864;23.360;2022-08-30T08:32:18;96047.66;;;20.95;100.00
29169;BME280;16219;42.864;23.360;2022-08-30T08:34:45;96046.53;;;21.00;100.00
29169;BME280;16219;42.864;23.360;2022-08-30T08:37:12;96037.34;;;21.01;100.00
29169;BME280;16219;42.864;23.360;2022-08-30T08:39:39;96040.03;;;21.01;100.00
29169;BME280;16219;42.864;23.360;2022-08-30T08:42:15;96044.34;;;21.12;100.00
29169;BME280;16219;42.864;23.360;2022-08-30T08:44:55;96043.56;;;21.12;100.00
29169;BME280;16219;42.864;23.360;2022-08-30T08:47:27;96038.16;;;21.08;100.00
29169;BME280;16219;42.864;23.360;2022-08-30T08:49:58;96041.31;;;21.17;100.00
29169;BME280;16219;42.864;23.360;2022-08-30T08:52:32;96045.53;;;21.22;100.00
29169;BME280;16219;42.864;23.360;2022-08-30T08:55:21;96048.22;;;21.22;100.00
29169;BME280;16219;42.864;23.360;2022-08-30T08:57:49;96050.53;;;21.20;100.00
29169;BME280;16219;42.864;23.360;2022-08-30T09:00:18;96056.69;;;21.24;100.00
29169;BME280;16219;42.864;23.360;2022-08-30T09:02:47;96056.03;;;21.38;100.00
29169;BME280;16219;42.864;23.360;2022-08-30T09:05:20;96052.31;;;21.57;100.00
29169;BME280;16219;42.864;23.360;2022-08-30T09:07:50;96061.22;;;21.68;100.00
29169;BME280;16219;42.864;23.360;2022-08-30T09:10:19;96036.28;;;21.67;100.00
29169;BME280;16219;42.864;23.360;2022-08-30T09:12:46;96059.41;;;21.93;100.00
29169;BME280;16219;42.864;23.360;2022-08-30T09:15:16;96069.44;;;22.04;100.00
29169;BME280;16219;42.864;23.360;2022-08-30T09:17:53;96061.78;;;22.06;100.00
29169;BME280;16219;42.864;23.360;2022-08-30T09:20:30;96059.13;;;22.13;100.00
29169;BME280;16219;42.864;23.360;2022-08-30T09:22:58;96038.69;;;21.90;100.00
29169;BME280;16219;42.864;23.360;2022-08-30T09:25:37;96061.00;;;22.05;100.00
29169;BME280;16219;42.864;23.360;2022-08-30T09:28:10;96061.75;;;21.99;100.00
29169;BME280;16219;42.864;23.360;2022-08-30T09:30:38;96052.53;;;22.00;100.00
29169;BME280;16219;42.864;23.360;2022-08-30T09:33:17;96057.16;;;22.06;100.00
29169;BME280;16219;42.864;23.360;2022-08-30T09:35:47;96064.84;;;22.08;100.00
29169;BME280;16219;42.864;23.360;2022-08-30T09:38:17;96052.53;;;22.03;100.00
29169;BME280;16219;42.864;23.360;2022-08-30T09:40:47;96039.81;;;21.86;100.00
29169;BME280;16219;42.864;23.360;2022-08-30T09:43:21;96054.88;;;22.05;100.00
29169;BME280;16219;42.864;23.360;2022-08-30T09:46:05;96056.44;;;22.13;100.00
29169;BME280;16219;42.864;23.360;2022-08-30T09:48:35;96059.53;;;22.15;100.00
29169;BME280;16219;42.864;23.360;2022-08-30T09:54:14;96042.19;;;22.02;100.00
29169;BME280;16219;42.864;23.360;2022-08-30T09:56:52;96046.00;;;22.04;100.00
29169;BME280;16219;42.864;23.360;2022-08-30T09:59:38;96048.78;;;22.15;100.00
29169;BME280;16219;42.864;23.360;2022-08-30T10:02:25;96045.69;;;22.13;100.00
29169;BME280;16219;42.864;23.360;2022-08-30T10:05:05;96050.34;;;22.19;100.00
29169;BME280;16219;42.864;23.360;2022-08-30T10:07:43;96055.72;;;22.23;100.00
29169;BME280;16219;42.864;23.360;2022-08-30T10:10:16;96054.19;;;22.26;100.00
29169;BME280;16219;42.864;23.360;2022-08-30T10:12:54;96048.44;;;22.24;100.00
29169;BME280;16219;42.864;23.360;2022-08-30T10:15:28;96035.38;;;22.29;100.00
29169;BME280;16219;42.864;23.360;2022-08-30T10:18:02;96042.31;;;22.34;100.00
29169;BME280;16219;42.864;23.360;2022-08-30T10:20:37;96039.63;;;22.37;100.00
29169;BME280;16219;42.864;23.360;2022-08-30T10:23:11;96032.75;;;22.43;100.00
29169;BME280;16219;42.864;23.360;2022-08-30T10:25:46;96032.34;;;22.45;100.00
29169;BME280;16219;42.864;23.360;2022-08-30T10:28:17;96033.50;;;22.51;100.00
29169;BME280;16219;42.864;23.360;2022-08-30T10:30:51;96035.81;;;22.49;100.00
29169;BME280;16219;42.864;23.360;2022-08-30T10:33:24;96022.00;;;22.54;100.00
29169;BME280;16219;42.864;23.360;2022-08-30T10:35:57;96023.16;;;22.64;100.00
29169;BME280;16219;42.864;23.360;2022-08-30T10:38:28;96020.13;;;22.69;100.00
29169;BME280;16219;42.864;23.360;2022-08-30T10:41:00;96025.50;;;22.73;100.00
29169;BME280;16219;42.864;23.360;2022-08-30T10:43:46;96005.91;;;22.65;100.00
29169;BME280;16219;42.864;23.360;2022-08-30T10:46:20;96023.19;;;22.78;100.00
29169;BME280;16219;42.864;23.360;2022-08-30T10:48:51;96017.03;;;22.85;100.00
29169;BME280;16219;42.864;23.360;2022-08-30T10:51:25;96007.47;;;22.91;100.00
29169;BME280;16219;42.864;23.360;2022-08-30T10:53:57;96006.69;;;23.08;100.00
29169;BME280;16219;42.864;23.360;2022-08-30T10:56:28;96003.19;;;23.18;100.00
29169;BME280;16219;42.864;23.360;2022-08-30T10:58:56;95989.75;;;23.15;100.00
29169;BME280;16219;42.864;23.360;2022-08-30T11:01:45;96000.47;;;23.40;100.00
29169;BME280;16219;42.864;23.360;2022-08-30T11:04:39;96003.91;;;23.51;100.00
29169;BME280;16219;42.864;23.360;2022-08-30T11:07:25;96008.53;;;23.58;100.00
29169;BME280;16219;42.864;23.360;2022-08-30T11:12:56;95999.66;;;23.57;100.00
29169;BME280;16219;42.864;23.360;2022-08-30T11:15:27;96016.94;;;23.74;100.00
29169;BME280;16219;42.864;23.360;2022-08-30T11:17:59;96016.19;;;23.77;100.00
29169;BME280;16219;42.864;23.360;2022-08-30T11:20:31;96011.94;;;23.76;100.00
29169;BME280;16219;42.864;23.360;2022-08-30T11:23:30;96011.97;;;23.69;100.00
29169;BME280;16219;42.864;23.360;2022-08-30T11:26:00;96013.13;;;23.68;100.00
29169;BME280;16219;42.864;23.360;2022-08-30T11:29:03;96010.03;;;23.66;100.00
29169;BME280;16219;42.864;23.360;2022-08-30T11:31:37;96003.53;;;23.53;100.00
29169;BME280;16219;42.864;23.360;2022-08-30T11:34:05;96000.84;;;23.49;100.00
29169;BME280;16219;42.864;23.360;2022-08-30T11:37:03;96010.84;;;23.49;100.00
29169;BME280;16219;42.864;23.360;2022-08-30T11:39:56;96017.38;;;23.48;100.00
29169;BME280;16219;42.864;23.360;2022-08-30T11:42:28;96013.16;;;23.54;100.00
29169;BME280;16219;42.864;23.360;2022-08-30T11:48:01;96005.03;;;23.57;100.00
29169;BME280;16219;42.864;23.360;2022-08-30T11:50:32;95998.13;;;23.56;100.00
29169;BME280;16219;42.864;23.360;2022-08-30T11:53:05;96001.97;;;23.66;100.00
29169;BME280;16219;42.864;23.360;2022-08-30T11:55:56;95998.06;;;23.81;100.00
29169;BME280;16219;42.864;23.360;2022-08-30T11:58:41;95995.34;;;23.88;100.00
29169;BME280;16219;42.864;23.360;2022-08-30T12:01:15;95986.88;;;23.93;100.00
29169;BME280;16219;42.864;23.360;2022-08-30T12:03:44;95999.13;;;24.05;100.00
29169;BME280;16219;42.864;23.360;2022-08-30T12:06:47;95994.09;;;24.11;100.00
29169;BME280;16219;42.864;23.360;2022-08-30T12:12:47;95980.91;;;24.27;100.00
29169;BME280;16219;42.864;23.360;2022-08-30T12:18:24;95954.63;;;24.46;100.00
29169;BME280;16219;42.864;23.360;2022-08-30T12:20:56;95968.41;;;24.55;100.00
29169;BME280;16219;42.864;23.360;2022-08-30T12:23:33;95962.25;;;24.54;100.00
29169;BME280;16219;42.864;23.360;2022-08-30T12:26:12;95956.81;;;24.65;100.00
29169;BME280;16219;42.864;23.360;2022-08-30T12:28:42;95961.03;;;24.66;100.00
29169;BME280;16219;42.864;23.360;2022-08-30T12:31:14;95957.59;;;24.62;100.00
29169;BME280;16219;42.864;23.360;2022-08-30T12:33:44;95954.47;;;24.67;100.00
29169;BME280;16219;42.864;23.360;2022-08-30T12:36:14;95941.28;;;24.76;100.00
29169;BME280;16219;42.864;23.360;2022-08-30T12:38:42;95936.19;;;24.85;100.00
29169;BME280;16219;42.864;23.360;2022-08-30T12:41:17;95918.84;;;24.86;100.00
29169;BME280;16219;42.864;23.360;2022-08-30T12:43:50;95927.53;;;25.05;100.00
29169;BME280;16219;42.864;23.360;2022-08-30T12:46:18;95923.19;;;25.14;100.00
29169;BME280;16219;42.864;23.360;2022-08-30T12:48:47;95922.38;;;25.21;100.00
29169;BME280;16219;42.864;23.360;2022-08-30T12:51:27;95918.03;;;25.31;100.00
29169;BME280;16219;42.864;23.360;2022-08-30T12:54:06;95917.50;;;25.43;100.00
29169;BME280;16219;42.864;23.360;2022-08-30T12:57:01;95913.63;;;25.44;100.00
29169;BME280;16219;42.864;23.360;2022-08-30T12:59:54;95915.94;;;25.46;100.00
29169;BME280;16219;42.864;23.360;2022-08-30T13:02:24;95889.94;;;25.25;100.00
29169;BME280;16219;42.864;23.360;2022-08-30T13:04:53;95912.63;;;25.31;100.00
29169;BME280;16219;42.864;23.360;2022-08-30T13:07:26;95898.47;;;25.20;100.00
29169;BME280;16219;42.864;23.360;2022-08-30T13:10:07;95917.56;;;25.36;100.00
29169;BME280;16219;42.864;23.360;2022-08-30T13:12:35;95913.97;;;25.50;100.00
29169;BME280;16219;42.864;23.360;2022-08-30T13:15:14;95914.66;;;25.57;100.00